Time;durP1;ratioP1;P1;durP2;ratioP2;P2;SDS_P1;SDS_P2;PMS_P1;PMS_P2;Temp;Humidity;BMP_temperature;BMP_pressure;BME280_temperature;BME280_humidity;BME280_pressure;Samples;Min_cycle;Max_cycle;Signal;HPM_P1;HPM_P2
2022/11/29 16:35:35;;;;;;;;;;;-0.10;99.90;;;;;;5096848;27;19916;-96
2022/11/29 16:38:04;;;;;;;;;;;-0.10;99.90;;;;;;5078028;28;19912;-96
2022/11/29 16:40:41;;;;;;;;;;;0.00;99.90;;;;;;5075885;28;19951;-96
2022/11/29 16:43:22;;;;;;;;;;;0.10;99.90;;;;;;5074142;28;20357;-94
2022/11/29 16:46:08;;;;;;;;;;;0.10;99.90;;;;;;5074698;28;19908;-96
2022/11/29 16:48:36;;;;;;;;;;;0.30;99.90;;;;;;5073327;28;19912;-95
2022/11/29 16:51:08;;;;;;;;;;;0.30;99.90;;;;;;5074720;28;19951;-96
2022/11/29 16:53:50;;;;;;;;;;;0.40;99.90;;;;;;5070816;28;20008;-96
2022/11/29 16:56:26;;;;;;;;;;;0.50;99.90;;;;;;5082892;28;19909;-94
2022/11/29 16:58:58;;;;;;;;;;;0.50;99.90;;;;;;5060763;28;19965;-94
2022/11/29 17:01:25;;;;;;;;;;;0.60;99.90;;;;;;5068489;28;19916;-94
2022/11/29 17:03:51;;;;;;;;;;;0.60;99.90;;;;;;5060146;28;20268;-93
2022/11/29 17:06:21;;;;;;;;;;;0.70;99.90;;;;;;5069414;28;19935;-94
2022/11/29 17:08:54;;;;;;;;;;;0.70;99.90;;;;;;5065509;28;19909;-93
2022/11/29 17:11:20;;;;;;;;;;;0.70;99.90;;;;;;5072600;28;19935;-95
2022/11/29 17:13:55;;;;;;;;;;;0.80;99.90;;;;;;5090197;28;20349;-95
2022/11/29 17:16:22;;;;;;;;;;;0.80;99.90;;;;;;5083777;28;19955;-94
2022/11/29 17:18:54;;;;;;;;;;;0.80;99.90;;;;;;5060955;28;19915;-95
2022/11/29 17:21:23;;;;;;;;;;;0.80;99.90;;;;;;5068805;28;19988;-95
2022/11/29 17:23:52;;;;;;;;;;;0.80;99.90;;;;;;5067322;28;19913;-95
2022/11/29 17:26:18;;;;;;;;;;;0.90;99.90;;;;;;5072190;28;20002;-94
2022/11/29 17:29:10;;;;;;;;;;;0.90;99.90;;;;;;5073697;28;20348;-93
2022/11/29 17:31:40;;;;;;;;;;;0.90;99.90;;;;;;5089988;28;19923;-95
2022/11/29 17:34:16;;;;;;;;;;;0.90;99.90;;;;;;5063785;28;20012;-95
2022/11/29 17:36:47;;;;;;;;;;;0.90;99.90;;;;;;5068584;28;19916;-95
2022/11/29 17:39:14;;;;;;;;;;;0.90;99.90;;;;;;5073210;28;20345;-96
2022/11/29 17:41:40;;;;;;;;;;;0.90;99.90;;;;;;5072351;28;20368;-94
2022/11/29 17:44:06;;;;;;;;;;;0.90;99.90;;;;;;5090503;28;19908;-95
2022/11/29 17:46:33;;;;;;;;;;;0.90;99.90;;;;;;5059269;28;19909;-94
2022/11/29 17:49:11;;;;;;;;;;;0.90;99.90;;;;;;5058783;28;19955;-95
2022/11/29 17:52:07;;;;;;;;;;;0.90;99.90;;;;;;5054563;28;19959;-96
2022/11/29 17:54:34;;;;;;;;;;;0.90;99.90;;;;;;5075516;28;19917;-93
2022/11/29 17:57:02;;;;;;;;;;;0.90;99.90;;;;;;5076721;28;19991;-94
2022/11/29 17:59:30;;;;;;;;;;;0.90;99.90;;;;;;5058762;28;20365;-93
2022/11/29 18:01:56;;;;;;;;;;;0.90;99.90;;;;;;5059819;28;19909;-93
2022/11/29 18:04:24;;;;;;;;;;;0.90;99.90;;;;;;5073529;28;19984;-94
2022/11/29 18:06:50;;;;;;;;;;;0.90;99.90;;;;;;5058152;28;19909;-93
2022/11/29 18:09:16;;;;;;;;;;;1.00;99.90;;;;;;5058770;28;20427;-94
2022/11/29 18:11:49;;;;;;;;;;;1.00;99.90;;;;;;5058441;28;20357;-93
2022/11/29 18:14:17;;;;;;;;;;;0.90;99.90;;;;;;5059190;28;19943;-94
2022/11/29 18:16:45;;;;;;;;;;;0.90;99.90;;;;;;5076694;28;19916;-94
2022/11/29 18:19:12;;;;;;;;;;;0.90;99.90;;;;;;5076320;28;20360;-95
2022/11/29 18:21:38;;;;;;;;;;;1.00;99.90;;;;;;5058539;28;19915;-94
2022/11/29 18:24:05;;;;;;;;;;;1.00;99.90;;;;;;5058468;28;19912;-94
2022/11/29 18:26:31;;;;;;;;;;;1.00;99.90;;;;;;5058630;28;20283;-95
2022/11/29 18:28:57;;;;;;;;;;;1.00;99.90;;;;;;5070008;28;19999;-95
2022/11/29 18:31:24;;;;;;;;;;;1.00;99.90;;;;;;5059843;28;19908;-95
2022/11/29 18:33:56;;;;;;;;;;;1.00;99.90;;;;;;5052531;28;19920;-94
